Norwegian Spirit — C6TQ6 — position and weather

sailwx.info

Track history (hours):
 
Tides and Currents Weather Stations Pressure Air Temp Water Temp Dewpoint Dewpoint Depression Visibility Wind Speed Wind Dir Waves Ship Positions

Norwegian Spirit

Operator: Norwegian Cruise Line

Last reported at 2019-Aug-24 06:59 UTC. Time now 2019-Aug-24 07:04 UTC.
Position N 54°32' E 018°33'.

Type: Passenger vessel. MMSI: 311746000.

Date/timePositionNaut miles runAvg speedWind from/ knotsBaromVisibWave heightAir tempDewpointWater temp
2019-Aug-24 06:59N 54°32' E 018°33'0 0.0
2019-Aug-24 06:29N 54°32' E 018°33'0 0.0
2019-Aug-24 05:59N 54°32' E 018°33'0 0.0
2019-Aug-24 05:29N 54°32' E 018°33'0 0.0
2019-Aug-24 04:59N 54°32' E 018°33'0 0.2
2019-Aug-24 04:30N 54°32' E 018°33'2 4.0
2019-Aug-24 04:00N 54°32' E 018°37'4 8.3
2019-Aug-24 03:30N 54°32' E 018°44'4 8.6
2019-Aug-24 03:00N 54°34' E 018°50'4 8.6
2019-Aug-24 02:30N 54°38' E 018°55'4 8.6
2019-Aug-24 02:00N 54°42' E 018°58'4 8.9
2019-Aug-24 01:30N 54°45' E 019°03'4 8.7
2019-Aug-24 01:00N 54°48' E 019°08'4 8.7
2019-Aug-24 00:30N 54°52' E 019°12'4 8.7
2019-Aug-24 00:00N 54°55' E 019°17'4 8.6
2019-Aug-23 23:30N 54°58' E 019°22'4 8.6
2019-Aug-23 23:00N 55°02' E 019°26'4 8.6
2019-Aug-23 22:30N 55°05' E 019°31'4 8.4
2019-Aug-23 22:00N 55°08' E 019°36'12 8.1
2019-Aug-23 20:35N 55°18' E 019°48'1 8.1
2019-Aug-23 20:30N 55°18' E 019°49'4 8.2
2019-Aug-23 20:00N 55°21' E 019°54'4 8.3
2019-Aug-23 19:30N 55°24' E 019°58'4 8.2
2019-Aug-23 19:00N 55°27' E 020°03'4254.7
2019-Aug-23 19:00N 55°24' E 020°00'1311.8 190 / 141025.0 5.4 21.018.020.0
2019-Aug-23 17:56N 55°34' E 020°13'10 8.1
2019-Aug-23 16:42N 55°39' E 020°28'2 8.0
2019-Aug-23 16:29N 55°40' E 020°31'4 8.1
2019-Aug-23 16:00N 55°41' E 020°37'4 8.1
2019-Aug-23 15:30N 55°43' E 020°43'4 7.9
2019-Aug-23 15:00N 55°44' E 020°50'4 8.7
2019-Aug-23 14:30N 55°44' E 020°58'4 8.3
2019-Aug-23 14:01N 55°44' E 021°05'1 1.5
2019-Aug-23 13:30N 55°43' E 021°06'0 0.0
2019-Aug-23 13:00N 55°43' E 021°06'0 0.0
2019-Aug-23 12:30N 55°43' E 021°06'0 0.0
2019-Aug-23 12:01N 55°43' E 021°06'0 0.0
2019-Aug-23 11:30N 55°43' E 021°06'0 0.0
2019-Aug-23 11:00N 55°43' E 021°06'0 0.0
2019-Aug-23 10:30N 55°43' E 021°06'0 0.0
2019-Aug-23 10:00N 55°43' E 021°06'0 0.0
2019-Aug-23 09:30N 55°43' E 021°06'0 0.0
2019-Aug-23 09:00N 55°43' E 021°06'0 0.0
2019-Aug-23 08:30N 55°43' E 021°06'0 0.0
2019-Aug-23 08:00N 55°43' E 021°06'0 0.0
2019-Aug-23 07:30N 55°43' E 021°06'0 0.0
2019-Aug-23 07:00N 55°43' E 021°06'0 0.0
2019-Aug-23 06:30N 55°43' E 021°06'0 0.0
2019-Aug-23 06:01N 55°43' E 021°06'0 0.0
2019-Aug-23 05:30N 55°43' E 021°06'0 0.0
2019-Aug-23 05:00N 55°43' E 021°06'0 0.0
2019-Aug-23 04:30N 55°43' E 021°06'0 0.4
2019-Aug-23 04:01N 55°43' E 021°06'4 8.2
2019-Aug-23 03:30N 55°44' E 020°59'917.3
2019-Aug-23 03:00N 55°51' E 020°50'1118.6
2019-Aug-23 02:25N 56°01' E 020°40'1218.6
2019-Aug-23 01:47N 56°12' E 020°36'2819.0
2019-Aug-23 00:19N 56°40' E 020°35'1819.2
2019-Aug-22 23:23N 56°57' E 020°44'1019.4
2019-Aug-22 22:53N 57°06' E 020°52'819.1
2019-Aug-22 22:29N 57°13' E 020°58'5615.9
2019-Aug-22 19:00N 57°48' E 022°18'76 3.2 230 / 211026.0 5.4 17.013.719.0
2019-Aug-21 19:00N 59°00' E 021°30'1327.9 260 / 231021.0 2.2 17.013.719.0
2019-Aug-21 18:31N 59°11' E 021°45'2720.1
2019-Aug-21 17:10N 59°27' E 022°27'319.9
2019-Aug-21 17:00N 59°29' E 022°32'1019.5
2019-Aug-21 16:30N 59°31' E 022°51'1020.0
2019-Aug-21 16:00N 59°31' E 023°11'1019.9
2019-Aug-21 15:30N 59°31' E 023°30'1020.2
2019-Aug-21 15:00N 59°31' E 023°50'1020.1
2019-Aug-21 14:30N 59°30' E 024°10'1019.9
2019-Aug-21 14:00N 59°30' E 024°30'714.7
2019-Aug-21 13:31N 59°32' E 024°44'5 9.8
2019-Aug-21 13:00N 59°27' E 024°46'0 0.2
2019-Aug-21 12:30N 59°27' E 024°46'0 0.0
2019-Aug-21 12:00N 59°27' E 024°46'0 0.0
2019-Aug-21 11:27N 59°27' E 024°46'0 0.0
2019-Aug-21 11:00N 59°27' E 024°46'0 0.0
2019-Aug-21 10:30N 59°27' E 024°46'0 0.0
2019-Aug-21 10:00N 59°27' E 024°46'0 0.0
2019-Aug-21 09:30N 59°27' E 024°46'0 0.0
2019-Aug-21 09:00N 59°27' E 024°46'0 0.0
2019-Aug-21 08:30N 59°27' E 024°46'0 0.0
2019-Aug-21 08:00N 59°27' E 024°46'0 0.0
2019-Aug-21 07:30N 59°27' E 024°46'0 0.0
2019-Aug-21 07:00N 59°27' E 024°46'0 0.0
2019-Aug-21 06:30N 59°27' E 024°46'0 0.0
2019-Aug-21 06:00N 59°27' E 024°46'0 0.0
2019-Aug-21 05:30N 59°27' E 024°46'0 0.0
2019-Aug-21 05:00N 59°27' E 024°46'0 0.0
2019-Aug-21 04:30N 59°27' E 024°46'0 0.0
2019-Aug-21 04:00N 59°27' E 024°46'0 0.1
2019-Aug-21 03:30N 59°27' E 024°46'5 9.0
2019-Aug-21 03:00N 59°31' E 024°44'713.3
2019-Aug-21 02:30N 59°38' E 024°40'917.8
2019-Aug-21 02:00N 59°44' E 024°52'918.9
2019-Aug-21 01:30N 59°51' E 025°06'1019.6
2019-Aug-21 01:00N 59°52' E 025°25'1019.9
2019-Aug-21 00:30N 59°54' E 025°45'1419.8
2019-Aug-20 23:47N 59°58' E 026°12'519.8
2019-Aug-20 23:30N 59°60' E 026°22'1019.1
2019-Aug-20 23:00N 60°01' E 026°41'1019.6
2019-Aug-20 22:30N 59°60' E 027°01'1019.1
2019-Aug-20 22:00N 60°04' E 027°18'1019.5
2019-Aug-20 21:30N 60°09' E 027°34'918.3
2019-Aug-20 21:00N 60°11' E 027°52'1019.8
2019-Aug-20 20:30N 60°09' E 028°11'1019.4
2019-Aug-20 20:00N 60°04' E 028°28'5287.7
2019-Aug-20 20:00N 60°00' E 028°24'1225.3 240 / 121021.0 5.4 20.016.919.0
2019-Aug-20 19:30N 60°03' E 028°48'1020.0
2019-Aug-20 19:00N 60°02' E 029°08'1017.8
2019-Aug-20 18:28N 60°02' E 029°27'511.1
2019-Aug-20 17:59N 60°00' E 029°37'510.0
2019-Aug-20 17:30N 59°58' E 029°46'5 9.5
2019-Aug-20 17:00N 59°56' E 029°55'4287.4
2019-Aug-20 17:00N 59°54' E 030°00'3 6.4 170 1022.010.8 21.018.018.0
2019-Aug-20 16:30N 59°56' E 030°04'4 7.0
2019-Aug-20 16:00N 59°57' E 030°11'0 0.2
2019-Aug-20 15:27N 59°57' E 030°11'0 0.0
2019-Aug-20 14:57N 59°57' E 030°11'0 0.0
2019-Aug-20 14:27N 59°57' E 030°11'0 0.0
2019-Aug-20 13:57N 59°57' E 030°11'0 0.0
2019-Aug-20 13:27N 59°57' E 030°11'0 0.0
2019-Aug-20 12:57N 59°57' E 030°11'0 0.0
2019-Aug-20 12:27N 59°57' E 030°11'0 0.0
2019-Aug-20 11:57N 59°57' E 030°11'0 0.0
2019-Aug-20 11:27N 59°57' E 030°11'0 0.0
2019-Aug-20 10:57N 59°57' E 030°11'0 0.0
2019-Aug-20 10:27N 59°57' E 030°11'0 0.0
2019-Aug-20 09:57N 59°57' E 030°11'0 0.0
2019-Aug-20 09:27N 59°57' E 030°11'0 0.0
2019-Aug-20 08:57N 59°57' E 030°11'0 0.0
2019-Aug-20 08:27N 59°57' E 030°11'0 0.0
2019-Aug-20 07:57N 59°57' E 030°11'0 0.0
2019-Aug-20 07:27N 59°57' E 030°11'0 0.0
2019-Aug-20 06:57N 59°57' E 030°11'0 0.0
2019-Aug-20 06:27N 59°57' E 030°11'0 0.0
2019-Aug-20 05:57N 59°57' E 030°11'0 0.0
2019-Aug-20 05:27N 59°57' E 030°11'0 0.0
2019-Aug-20 04:57N 59°57' E 030°11'0 0.0
2019-Aug-20 04:27N 59°57' E 030°11'0 0.0
2019-Aug-20 03:57N 59°57' E 030°11'0 0.0
2019-Aug-20 03:27N 59°57' E 030°11'0 0.0
2019-Aug-20 02:57N 59°57' E 030°11'0 0.0
2019-Aug-20 02:27N 59°57' E 030°11'0 0.0
2019-Aug-20 01:57N 59°57' E 030°11'0 0.0
2019-Aug-20 01:27N 59°57' E 030°11'0 0.0
2019-Aug-20 00:57N 59°57' E 030°11'0 0.0
2019-Aug-20 00:27N 59°57' E 030°11'0 0.0
2019-Aug-19 23:57N 59°57' E 030°11'0 0.0
2019-Aug-19 23:27N 59°57' E 030°11'0 0.0
2019-Aug-19 22:57N 59°57' E 030°11'0 0.0
2019-Aug-19 22:27N 59°57' E 030°11'0 0.0
2019-Aug-19 21:57N 59°57' E 030°11'0 0.0
2019-Aug-19 21:27N 59°57' E 030°11'0 0.0
2019-Aug-19 20:57N 59°57' E 030°11'0 0.0
2019-Aug-19 20:27N 59°57' E 030°11'0 0.0
2019-Aug-19 19:57N 59°57' E 030°11'0 0.0
2019-Aug-19 19:27N 59°57' E 030°11'0 0.0
2019-Aug-19 18:57N 59°57' E 030°11'0 0.0
2019-Aug-19 18:27N 59°57' E 030°11'0 0.0
2019-Aug-19 17:57N 59°57' E 030°11'0 0.0
2019-Aug-19 17:27N 59°57' E 030°11'0 0.0
2019-Aug-19 16:57N 59°57' E 030°11'0 0.0
2019-Aug-19 16:27N 59°57' E 030°11'0 0.0
2019-Aug-19 15:57N 59°57' E 030°11'0 0.0
2019-Aug-19 15:27N 59°57' E 030°11'0 0.0
2019-Aug-19 14:57N 59°57' E 030°11'0 0.0
2019-Aug-19 14:27N 59°57' E 030°11'9582098.0
2019-Aug-19 14:00N 52°54' E 004°18'95821955.5 170 / 161011.010.8 20.016.917.0
2019-Aug-19 13:57N 59°57' E 030°11'0 0.0
2019-Aug-19 13:27N 59°57' E 030°11'0 0.0
2019-Aug-19 12:57N 59°57' E 030°11'0 0.0
2019-Aug-19 12:27N 59°57' E 030°11'0 0.0
2019-Aug-19 11:57N 59°57' E 030°11'0 0.0
2019-Aug-19 11:27N 59°57' E 030°11'0 0.0
2019-Aug-19 10:57N 59°57' E 030°11'0 0.0
2019-Aug-19 10:27N 59°57' E 030°11'0 0.0
2019-Aug-19 09:57N 59°57' E 030°11'0 0.0
2019-Aug-19 09:27N 59°57' E 030°11'0 0.0
2019-Aug-19 08:57N 59°57' E 030°11'0 0.0
2019-Aug-19 08:27N 59°57' E 030°11'0 0.0
2019-Aug-19 07:57N 59°57' E 030°11'0 0.0
2019-Aug-19 07:27N 59°57' E 030°11'0 0.0
2019-Aug-19 06:57N 59°57' E 030°11'0 0.0
2019-Aug-19 06:27N 59°57' E 030°11'0 0.0
2019-Aug-19 05:57N 59°57' E 030°11'0 0.0
2019-Aug-19 05:27N 59°57' E 030°11'0 0.0
2019-Aug-19 04:57N 59°57' E 030°11'0 0.0
2019-Aug-19 04:27N 59°57' E 030°11'0 0.0
2019-Aug-19 03:57N 59°57' E 030°11'0 0.7
2019-Aug-19 03:30N 59°57' E 030°11'4 8.7
2019-Aug-19 03:00N 59°56' E 030°03'5 9.7
2019-Aug-19 02:30N 59°57' E 029°53'5 9.5
2019-Aug-19 02:00N 59°59' E 029°45'5 9.5
2019-Aug-19 01:30N 60°00' E 029°36'510.7
2019-Aug-19 01:00N 60°02' E 029°25'917.0
2019-Aug-19 00:30N 60°02' E 029°08'917.2
2019-Aug-19 00:00N 60°02' E 028°51'917.8
2019-Aug-18 23:31N 60°02' E 028°33'816.8
2019-Aug-18 23:00N 60°06' E 028°18'917.2
2019-Aug-18 22:30N 60°09' E 028°02'917.1
2019-Aug-18 22:00N 60°11' E 027°45'917.6
2019-Aug-18 21:30N 60°06' E 027°30'917.6
2019-Aug-18 21:00N 60°01' E 027°15'917.1
2019-Aug-18 20:30N 59°58' E 026°60'917.3
2019-Aug-18 20:00N 59°59' E 026°43'6336.0
2019-Aug-18 20:00N 59°54' E 026°42'918.3 140 / 221010.0 5.4 16.010.819.0
2019-Aug-18 19:30N 59°58' E 026°26'917.2
2019-Aug-18 19:00N 59°55' E 026°10'2143.5
2019-Aug-18 19:00N 59°54' E 026°06'713.5 130 / 281010.0 2.2 15.011.619.0
2019-Aug-18 18:30N 59°53' E 025°53'816.7
2019-Aug-18 18:00N 59°52' E 025°37'917.5
2019-Aug-18 17:30N 59°54' E 025°20'917.8
2019-Aug-18 17:00N 59°58' E 025°04'612.9
2019-Aug-18 16:30N 60°03' E 024°54'613.0
2019-Aug-18 16:01N 60°09' E 024°55'0 0.2
2019-Aug-18 15:29N 60°09' E 024°55'0 0.0
2019-Aug-18 14:59N 60°09' E 024°55'0 0.0
2019-Aug-18 14:29N 60°09' E 024°55'0 0.0
2019-Aug-18 13:59N 60°09' E 024°55'0 0.0
2019-Aug-18 13:29N 60°09' E 024°55'0 0.0
2019-Aug-18 12:59N 60°09' E 024°55'0 0.0
2019-Aug-18 12:29N 60°09' E 024°55'0 0.0
2019-Aug-18 11:59N 60°09' E 024°55'0 0.0
2019-Aug-18 11:29N 60°09' E 024°55'0 0.0
2019-Aug-18 10:59N 60°09' E 024°55'0 0.0
2019-Aug-18 10:29N 60°09' E 024°55'0 0.0
2019-Aug-18 09:59N 60°09' E 024°55'0 0.0
2019-Aug-18 09:29N 60°09' E 024°55'0 0.0
2019-Aug-18 08:59N 60°09' E 024°55'0 0.0
2019-Aug-18 08:29N 60°09' E 024°55'0 0.0
2019-Aug-18 07:59N 60°09' E 024°55'0 0.2
2019-Aug-18 07:00N 60°09' E 024°55'1 2.0
2019-Aug-18 06:30N 60°08' E 024°54'713.5
2019-Aug-18 06:00N 60°01' E 024°55'713.2
2019-Aug-18 05:31N 59°55' E 024°56'816.9
2019-Aug-18 05:01N 59°47' E 024°49'1019.0
2019-Aug-18 04:31N 59°45' E 024°31'918.7
2019-Aug-18 04:00N 59°42' E 024°13'1018.7
2019-Aug-18 03:30N 59°39' E 023°55'919.0
2019-Aug-18 03:00N 59°37' E 023°37'181583.6
2019-Aug-18 03:00N 59°42' E 024°12'2857.7 160 / 231010.010.8 23.020.119.0
2019-Aug-18 02:31N 59°34' E 023°19'919.0
2019-Aug-18 02:01N 59°30' E 023°02'917.9
2019-Aug-18 01:31N 59°27' E 022°46'918.7
2019-Aug-18 01:01N 59°23' E 022°28'918.8
2019-Aug-18 00:31N 59°25' E 022°10'918.9
2019-Aug-18 00:01N 59°28' E 021°53'1019.2
2019-Aug-17 23:31N 59°31' E 021°34'1019.0
2019-Aug-17 23:01N 59°33' E 021°16'1018.9
2019-Aug-17 22:30N 59°36' E 020°58'1118.9
2019-Aug-17 21:54N 59°39' E 020°37'2718.6
2019-Aug-17 20:26N 59°46' E 019°44'1019.0
2019-Aug-17 19:56N 59°47' E 019°26'815.3
2019-Aug-17 19:25N 59°44' E 019°11'816.5
2019-Aug-17 18:55N 59°40' E 018°57'410.3
2019-Aug-17 18:30N 59°37' E 018°50'1110.9
2019-Aug-17 17:28N 59°31' E 018°31'510.4
2019-Aug-17 17:00N 59°27' E 018°26'4 8.0
2019-Aug-17 16:30N 59°23' E 018°27'3 6.6
2019-Aug-17 16:00N 59°23' E 018°21'510.7
2019-Aug-17 15:30N 59°20' E 018°11'2 3.7
2019-Aug-17 15:00N 59°21' E 018°08'0 0.0
2019-Aug-17 14:29N 59°21' E 018°08'0 0.0
2019-Aug-17 13:59N 59°21' E 018°08'0 0.0
2019-Aug-17 13:29N 59°21' E 018°08'0 0.0
2019-Aug-17 12:59N 59°21' E 018°08'0 0.0
2019-Aug-17 12:29N 59°21' E 018°08'0 0.0
2019-Aug-17 11:59N 59°21' E 018°08'0 0.0
2019-Aug-17 11:29N 59°21' E 018°08'0 0.0
2019-Aug-17 10:59N 59°21' E 018°08'0 0.0
2019-Aug-17 10:29N 59°21' E 018°08'0 0.0
2019-Aug-17 09:59N 59°21' E 018°08'0 0.0
2019-Aug-17 09:29N 59°21' E 018°08'0 0.0
2019-Aug-17 08:59N 59°21' E 018°08'0 0.0
2019-Aug-17 08:29N 59°21' E 018°08'0 0.0
2019-Aug-17 07:59N 59°21' E 018°08'0 0.0
2019-Aug-17 07:29N 59°21' E 018°08'0 0.0
2019-Aug-17 06:59N 59°21' E 018°08'0 0.0
2019-Aug-17 06:29N 59°21' E 018°08'0 0.0
2019-Aug-17 05:59N 59°21' E 018°08'1 1.4
2019-Aug-17 05:30N 59°21' E 018°09'5 9.4
2019-Aug-17 05:00N 59°23' E 018°17'5 9.8
2019-Aug-17 04:30N 59°22' E 018°27'5 9.9
2019-Aug-17 04:00N 59°26' E 018°23'611.2
2019-Aug-17 03:30N 59°31' E 018°30'5 9.8
2019-Aug-17 03:00N 59°34' E 018°38'611.9
2019-Aug-17 02:30N 59°37' E 018°48'510.5
2019-Aug-17 02:00N 59°40' E 018°56'815.9
2019-Aug-17 01:30N 59°44' E 019°10'917.9
2019-Aug-17 01:01N 59°47' E 019°26'917.1
2019-Aug-17 00:31N 59°48' E 019°43'917.4
2019-Aug-17 00:00N 59°42' E 019°56'916.9
2019-Aug-16 23:30N 59°36' E 020°09'1817.0
2019-Aug-16 22:27N 59°34' E 020°44'817.6
2019-Aug-16 22:00N 59°31' E 020°59'917.5
2019-Aug-16 21:31N 59°29' E 021°15'917.1
2019-Aug-16 21:00N 59°27' E 021°32'917.4
2019-Aug-16 20:31N 59°28' E 021°49'917.4
2019-Aug-16 20:01N 59°28' E 022°06'917.2
2019-Aug-16 19:30N 59°29' E 022°23'1019.4
2019-Aug-16 19:00N 59°32' E 022°41'1019.5
2019-Aug-16 18:30N 59°35' E 022°59'1019.2
2019-Aug-16 18:00N 59°38' E 023°17'918.8
2019-Aug-16 17:30N 59°41' E 023°35'918.8
2019-Aug-16 17:01N 59°43' E 023°53'147286858.8
2019-Aug-16 17:00N 59°54' W 024°54'14803064.1 130 / 91015.010.8 23.020.118.0
2019-Aug-16 16:31N 59°46' E 024°11'918.8
2019-Aug-16 16:00N 59°48' E 024°29'918.7
2019-Aug-16 15:30N 59°52' E 024°46'816.4
2019-Aug-16 15:00N 59°58' E 024°57'713.9
2019-Aug-16 14:30N 60°05' E 024°54'4 8.0
2019-Aug-16 14:01N 60°09' E 024°55'0 0.0
2019-Aug-16 13:28N 60°09' E 024°55'0 0.0
2019-Aug-16 12:58N 60°09' E 024°55'0 0.0
2019-Aug-16 12:28N 60°09' E 024°55'0 0.0
2019-Aug-16 11:58N 60°09' E 024°55'0 0.0
2019-Aug-16 11:28N 60°09' E 024°55'0 0.0
2019-Aug-16 10:58N 60°09' E 024°55'0 0.0
2019-Aug-16 10:28N 60°09' E 024°55'0 0.0
2019-Aug-16 09:58N 60°09' E 024°55'0 0.0
2019-Aug-16 09:28N 60°09' E 024°55'0 0.0
2019-Aug-16 08:58N 60°09' E 024°55'0 0.0
2019-Aug-16 08:28N 60°09' E 024°55'0 0.0
2019-Aug-16 07:58N 60°09' E 024°55'0 0.0
2019-Aug-16 07:28N 60°09' E 024°55'0 0.0
2019-Aug-16 06:58N 60°09' E 024°55'0 0.0
2019-Aug-16 06:28N 60°09' E 024°55'0 0.0
2019-Aug-16 05:58N 60°09' E 024°55'0 0.0
2019-Aug-16 05:28N 60°09' E 024°55'0 0.0
2019-Aug-16 04:55N 60°09' E 024°55'0 0.0
2019-Aug-16 04:31N 60°09' E 024°55'1 1.6
2019-Aug-16 04:00N 60°08' E 024°54'612.9
2019-Aug-16 03:30N 60°02' E 024°55'612.8
2019-Aug-16 03:01N 59°59' E 025°06'918.9
2019-Aug-16 02:31N 59°56' E 025°24'1019.2
2019-Aug-16 02:01N 59°55' E 025°43'1019.2
2019-Aug-16 01:31N 59°57' E 026°02'1019.3
2019-Aug-16 01:00N 59°60' E 026°21'1019.6
2019-Aug-16 00:31N 60°01' E 026°40'917.6
2019-Aug-16 00:00N 59°59' E 026°58'816.4
2019-Aug-15 23:31N 60°02' E 027°13'917.0
2019-Aug-15 23:00N 60°07' E 027°27'816.9
2019-Aug-15 22:30N 60°11' E 027°42'816.0
2019-Aug-15 22:01N 60°11' E 027°58'816.7
2019-Aug-15 21:30N 60°09' E 028°14'816.2
2019-Aug-15 21:01N 60°04' E 028°27'816.1
2019-Aug-15 20:30N 60°03' E 028°43'816.2
2019-Aug-15 20:00N 60°03' E 028°60'815.8
2019-Aug-15 19:30N 60°02' E 029°15'713.3
2019-Aug-15 19:00N 60°02' E 029°29'510.0
2019-Aug-15 18:30N 60°00' E 029°38'5 9.7
2019-Aug-15 18:00N 59°58' E 029°47'510.3
2019-Aug-15 17:30N 59°56' E 029°57'5 9.4
2019-Aug-15 17:00N 59°57' E 030°06'2 5.0
2019-Aug-15 16:30N 59°57' E 030°11'0 0.0
2019-Aug-15 15:59N 59°57' E 030°11'0 0.0
2019-Aug-15 15:26N 59°57' E 030°11'0 0.0
2019-Aug-15 14:56N 59°57' E 030°11'0 0.0
2019-Aug-15 14:29N 59°57' E 030°11'0 0.0
2019-Aug-15 13:59N 59°57' E 030°11'0 0.0
2019-Aug-15 13:29N 59°57' E 030°11'0 0.0
2019-Aug-15 12:59N 59°57' E 030°11'0 0.0
2019-Aug-15 12:29N 59°57' E 030°11'0 0.0
2019-Aug-15 11:59N 59°57' E 030°11'0 0.0
2019-Aug-15 11:29N 59°57' E 030°11'0 0.0
2019-Aug-15 10:59N 59°57' E 030°11'0 0.0
2019-Aug-15 10:29N 59°57' E 030°11'0 0.0
2019-Aug-15 09:59N 59°57' E 030°11'0 0.0
2019-Aug-15 09:26N 59°57' E 030°11'0 0.0
2019-Aug-15 08:56N 59°57' E 030°11'0 0.0
2019-Aug-15 08:29N 59°57' E 030°11'0 0.0
2019-Aug-15 07:59N 59°57' E 030°11'0 0.0
2019-Aug-15 07:29N 59°57' E 030°11'0 0.0
2019-Aug-15 06:59N 59°57' E 030°11'0 0.0
2019-Aug-15 06:29N 59°57' E 030°11'0 0.0
2019-Aug-15 05:59N 59°57' E 030°11'0 0.0
2019-Aug-15 05:29N 59°57' E 030°11'0 0.0
2019-Aug-15 04:59N 59°57' E 030°11'0 0.0
2019-Aug-15 04:29N 59°57' E 030°11'0 0.0
2019-Aug-15 03:59N 59°57' E 030°11'0 0.0
2019-Aug-15 03:26N 59°57' E 030°11'0 0.0
2019-Aug-15 02:59N 59°57' E 030°11'0 0.0
2019-Aug-15 02:29N 59°57' E 030°11'0 0.0
2019-Aug-15 01:59N 59°57' E 030°11'0 0.0
2019-Aug-15 01:29N 59°57' E 030°11'0 0.0
2019-Aug-15 00:56N 59°57' E 030°11'0 0.0
2019-Aug-15 00:29N 59°57' E 030°11'0 0.0
2019-Aug-14 23:59N 59°57' E 030°11'0 0.0
2019-Aug-14 23:29N 59°57' E 030°11'0 0.0
2019-Aug-14 22:59N 59°57' E 030°11'0 0.0
2019-Aug-14 22:29N 59°57' E 030°11'0 0.0
2019-Aug-14 21:56N 59°57' E 030°11'0 0.0
2019-Aug-14 21:29N 59°57' E 030°11'0 0.0
2019-Aug-14 20:56N 59°57' E 030°11'0 0.0
2019-Aug-14 20:29N 59°57' E 030°11'0 0.0
2019-Aug-14 19:59N 59°57' E 030°11'0 0.0
2019-Aug-14 19:29N 59°57' E 030°11'0 0.0
2019-Aug-14 18:59N 59°57' E 030°11'0 0.0
2019-Aug-14 18:29N 59°57' E 030°11'0 0.0
2019-Aug-14 17:59N 59°57' E 030°11'0 0.0
2019-Aug-14 17:29N 59°57' E 030°11'0 0.0
2019-Aug-14 16:59N 59°57' E 030°11'0 0.0
2019-Aug-14 16:29N 59°57' E 030°11'0 0.0
2019-Aug-14 15:59N 59°57' E 030°11'0 0.0
2019-Aug-14 15:29N 59°57' E 030°11'0 0.0
2019-Aug-14 14:59N 59°57' E 030°11'0 0.0
2019-Aug-14 14:29N 59°57' E 030°11'0 0.0
2019-Aug-14 13:59N 59°57' E 030°11'0 0.0
2019-Aug-14 13:29N 59°57' E 030°11'0 0.0
2019-Aug-14 12:59N 59°57' E 030°11'0 0.0
2019-Aug-14 12:29N 59°57' E 030°11'0 0.0
2019-Aug-14 11:59N 59°57' E 030°11'0 0.0
2019-Aug-14 11:29N 59°57' E 030°11'0 0.0
2019-Aug-14 10:59N 59°57' E 030°11'0 0.0
2019-Aug-14 10:29N 59°57' E 030°11'0 0.0
2019-Aug-14 09:59N 59°57' E 030°11'0 0.0
2019-Aug-14 09:29N 59°57' E 030°11'0 0.0
2019-Aug-14 08:59N 59°57' E 030°11'0 0.0
2019-Aug-14 08:29N 59°57' E 030°11'0 0.0
2019-Aug-14 07:59N 59°57' E 030°11'0 0.0
2019-Aug-14 07:29N 59°57' E 030°11'0 0.0
2019-Aug-14 06:59N 59°57' E 030°11'  
Track history (hours):
 
Tides and Currents Weather Stations Pressure Air Temp Water Temp Dewpoint Dewpoint Depression Visibility Wind Speed Wind Dir Waves Ship Positions

Norwegian Spirit

Operator: Norwegian Cruise Line

Last reported at 2019-Aug-24 06:59 UTC. Time now 2019-Aug-24 07:04 UTC.
Position N 54°32' E 018°33'.

Type: Passenger vessel. MMSI: 311746000.

Date/timePositionNaut miles runAvg speedWind from/ knotsBaromVisibWave heightAir tempDewpointWater temp
2019-Aug-24 06:59N 54°32' E 018°33'0 0.0
2019-Aug-24 06:29N 54°32' E 018°33'0 0.0
2019-Aug-24 05:59N 54°32' E 018°33'0 0.0
2019-Aug-24 05:29N 54°32' E 018°33'0 0.0
2019-Aug-24 04:59N 54°32' E 018°33'0 0.2
2019-Aug-24 04:30N 54°32' E 018°33'2 4.0
2019-Aug-24 04:00N 54°32' E 018°37'4 8.3
2019-Aug-24 03:30N 54°32' E 018°44'4 8.6
2019-Aug-24 03:00N 54°34' E 018°50'4 8.6
2019-Aug-24 02:30N 54°38' E 018°55'4 8.6
2019-Aug-24 02:00N 54°42' E 018°58'4 8.9
2019-Aug-24 01:30N 54°45' E 019°03'4 8.7
2019-Aug-24 01:00N 54°48' E 019°08'4 8.7
2019-Aug-24 00:30N 54°52' E 019°12'4 8.7
2019-Aug-24 00:00N 54°55' E 019°17'4 8.6
2019-Aug-23 23:30N 54°58' E 019°22'4 8.6
2019-Aug-23 23:00N 55°02' E 019°26'4 8.6
2019-Aug-23 22:30N 55°05' E 019°31'4 8.4
2019-Aug-23 22:00N 55°08' E 019°36'12 8.1
2019-Aug-23 20:35N 55°18' E 019°48'1 8.1
2019-Aug-23 20:30N 55°18' E 019°49'4 8.2
2019-Aug-23 20:00N 55°21' E 019°54'4 8.3
2019-Aug-23 19:30N 55°24' E 019°58'4 8.2
2019-Aug-23 19:00N 55°27' E 020°03'4254.7
2019-Aug-23 19:00N 55°24' E 020°00'1311.8 190 / 141025.0 5.4 21.018.020.0
2019-Aug-23 17:56N 55°34' E 020°13'10 8.1
2019-Aug-23 16:42N 55°39' E 020°28'2 8.0
2019-Aug-23 16:29N 55°40' E 020°31'4 8.1
2019-Aug-23 16:00N 55°41' E 020°37'4 8.1
2019-Aug-23 15:30N 55°43' E 020°43'4 7.9
2019-Aug-23 15:00N 55°44' E 020°50'4 8.7
2019-Aug-23 14:30N 55°44' E 020°58'4 8.3
2019-Aug-23 14:01N 55°44' E 021°05'1 1.5
2019-Aug-23 13:30N 55°43' E 021°06'0 0.0
2019-Aug-23 13:00N 55°43' E 021°06'0 0.0
2019-Aug-23 12:30N 55°43' E 021°06'0 0.0
2019-Aug-23 12:01N 55°43' E 021°06'0 0.0
2019-Aug-23 11:30N 55°43' E 021°06'0 0.0
2019-Aug-23 11:00N 55°43' E 021°06'0 0.0
2019-Aug-23 10:30N 55°43' E 021°06'0 0.0
2019-Aug-23 10:00N 55°43' E 021°06'0 0.0
2019-Aug-23 09:30N 55°43' E 021°06'0 0.0
2019-Aug-23 09:00N 55°43' E 021°06'0 0.0
2019-Aug-23 08:30N 55°43' E 021°06'0 0.0
2019-Aug-23 08:00N 55°43' E 021°06'0 0.0
2019-Aug-23 07:30N 55°43' E 021°06'0 0.0
2019-Aug-23 07:00N 55°43' E 021°06'0 0.0
2019-Aug-23 06:30N 55°43' E 021°06'0 0.0
2019-Aug-23 06:01N 55°43' E 021°06'0 0.0
2019-Aug-23 05:30N 55°43' E 021°06'0 0.0
2019-Aug-23 05:00N 55°43' E 021°06'0 0.0
2019-Aug-23 04:30N 55°43' E 021°06'0 0.4
2019-Aug-23 04:01N 55°43' E 021°06'4 8.2
2019-Aug-23 03:30N 55°44' E 020°59'917.3
2019-Aug-23 03:00N 55°51' E 020°50'1118.6
2019-Aug-23 02:25N 56°01' E 020°40'1218.6
2019-Aug-23 01:47N 56°12' E 020°36'2819.0
2019-Aug-23 00:19N 56°40' E 020°35'1819.2
2019-Aug-22 23:23N 56°57' E 020°44'1019.4
2019-Aug-22 22:53N 57°06' E 020°52'819.1
2019-Aug-22 22:29N 57°13' E 020°58'5615.9
2019-Aug-22 19:00N 57°48' E 022°18'76 3.2 230 / 211026.0 5.4 17.013.719.0
2019-Aug-21 19:00N 59°00' E 021°30'1327.9 260 / 231021.0 2.2 17.013.719.0
2019-Aug-21 18:31N 59°11' E 021°45'2720.1
2019-Aug-21 17:10N 59°27' E 022°27'319.9
2019-Aug-21 17:00N 59°29' E 022°32'1019.5
2019-Aug-21 16:30N 59°31' E 022°51'1020.0
2019-Aug-21 16:00N 59°31' E 023°11'1019.9
2019-Aug-21 15:30N 59°31' E 023°30'1020.2
2019-Aug-21 15:00N 59°31' E 023°50'1020.1
2019-Aug-21 14:30N 59°30' E 024°10'1019.9
2019-Aug-21 14:00N 59°30' E 024°30'714.7
2019-Aug-21 13:31N 59°32' E 024°44'5 9.8
2019-Aug-21 13:00N 59°27' E 024°46'0 0.2
2019-Aug-21 12:30N 59°27' E 024°46'0 0.0
2019-Aug-21 12:00N 59°27' E 024°46'0 0.0
2019-Aug-21 11:27N 59°27' E 024°46'0 0.0
2019-Aug-21 11:00N 59°27' E 024°46'0 0.0
2019-Aug-21 10:30N 59°27' E 024°46'0 0.0
2019-Aug-21 10:00N 59°27' E 024°46'0 0.0
2019-Aug-21 09:30N 59°27' E 024°46'0 0.0
2019-Aug-21 09:00N 59°27' E 024°46'0 0.0
2019-Aug-21 08:30N 59°27' E 024°46'0 0.0
2019-Aug-21 08:00N 59°27' E 024°46'0 0.0
2019-Aug-21 07:30N 59°27' E 024°46'0 0.0
2019-Aug-21 07:00N 59°27' E 024°46'0 0.0
2019-Aug-21 06:30N 59°27' E 024°46'0 0.0
2019-Aug-21 06:00N 59°27' E 024°46'0 0.0
2019-Aug-21 05:30N 59°27' E 024°46'0 0.0
2019-Aug-21 05:00N 59°27' E 024°46'0 0.0
2019-Aug-21 04:30N 59°27' E 024°46'0 0.0
2019-Aug-21 04:00N 59°27' E 024°46'0 0.1
2019-Aug-21 03:30N 59°27' E 024°46'5 9.0
2019-Aug-21 03:00N 59°31' E 024°44'713.3
2019-Aug-21 02:30N 59°38' E 024°40'917.8
2019-Aug-21 02:00N 59°44' E 024°52'918.9
2019-Aug-21 01:30N 59°51' E 025°06'1019.6
2019-Aug-21 01:00N 59°52' E 025°25'1019.9
2019-Aug-21 00:30N 59°54' E 025°45'1419.8
2019-Aug-20 23:47N 59°58' E 026°12'519.8
2019-Aug-20 23:30N 59°60' E 026°22'1019.1
2019-Aug-20 23:00N 60°01' E 026°41'1019.6
2019-Aug-20 22:30N 59°60' E 027°01'1019.1
2019-Aug-20 22:00N 60°04' E 027°18'1019.5
2019-Aug-20 21:30N 60°09' E 027°34'918.3
2019-Aug-20 21:00N 60°11' E 027°52'1019.8
2019-Aug-20 20:30N 60°09' E 028°11'1019.4
2019-Aug-20 20:00N 60°04' E 028°28'5287.7
2019-Aug-20 20:00N 60°00' E 028°24'1225.3 240 / 121021.0 5.4 20.016.919.0
2019-Aug-20 19:30N 60°03' E 028°48'1020.0
2019-Aug-20 19:00N 60°02' E 029°08'1017.8
2019-Aug-20 18:28N 60°02' E 029°27'511.1
2019-Aug-20 17:59N 60°00' E 029°37'510.0
2019-Aug-20 17:30N 59°58' E 029°46'5 9.5
2019-Aug-20 17:00N 59°56' E 029°55'4287.4
2019-Aug-20 17:00N 59°54' E 030°00'3 6.4 170 1022.010.8 21.018.018.0
2019-Aug-20 16:30N 59°56' E 030°04'4 7.0
2019-Aug-20 16:00N 59°57' E 030°11'0 0.2
2019-Aug-20 15:27N 59°57' E 030°11'0 0.0
2019-Aug-20 14:57N 59°57' E 030°11'0 0.0
2019-Aug-20 14:27N 59°57' E 030°11'0 0.0
2019-Aug-20 13:57N 59°57' E 030°11'0 0.0
2019-Aug-20 13:27N 59°57' E 030°11'0 0.0
2019-Aug-20 12:57N 59°57' E 030°11'0 0.0
2019-Aug-20 12:27N 59°57' E 030°11'0 0.0
2019-Aug-20 11:57N 59°57' E 030°11'0 0.0
2019-Aug-20 11:27N 59°57' E 030°11'0 0.0
2019-Aug-20 10:57N 59°57' E 030°11'0 0.0
2019-Aug-20 10:27N 59°57' E 030°11'0 0.0
2019-Aug-20 09:57N 59°57' E 030°11'0 0.0
2019-Aug-20 09:27N 59°57' E 030°11'0 0.0
2019-Aug-20 08:57N 59°57' E 030°11'0 0.0
2019-Aug-20 08:27N 59°57' E 030°11'0 0.0
2019-Aug-20 07:57N 59°57' E 030°11'0 0.0
2019-Aug-20 07:27N 59°57' E 030°11'0 0.0
2019-Aug-20 06:57N 59°57' E 030°11'0 0.0
2019-Aug-20 06:27N 59°57' E 030°11'0 0.0
2019-Aug-20 05:57N 59°57' E 030°11'0 0.0
2019-Aug-20 05:27N 59°57' E 030°11'0 0.0
2019-Aug-20 04:57N 59°57' E 030°11'0 0.0
2019-Aug-20 04:27N 59°57' E 030°11'0 0.0
2019-Aug-20 03:57N 59°57' E 030°11'0 0.0
2019-Aug-20 03:27N 59°57' E 030°11'0 0.0
2019-Aug-20 02:57N 59°57' E 030°11'0 0.0
2019-Aug-20 02:27N 59°57' E 030°11'0 0.0
2019-Aug-20 01:57N 59°57' E 030°11'0 0.0
2019-Aug-20 01:27N 59°57' E 030°11'0 0.0
2019-Aug-20 00:57N 59°57' E 030°11'0 0.0
2019-Aug-20 00:27N 59°57' E 030°11'0 0.0
2019-Aug-19 23:57N 59°57' E 030°11'0 0.0
2019-Aug-19 23:27N 59°57' E 030°11'0 0.0
2019-Aug-19 22:57N 59°57' E 030°11'0 0.0
2019-Aug-19 22:27N 59°57' E 030°11'0 0.0
2019-Aug-19 21:57N 59°57' E 030°11'0 0.0
2019-Aug-19 21:27N 59°57' E 030°11'0 0.0
2019-Aug-19 20:57N 59°57' E 030°11'0 0.0
2019-Aug-19 20:27N 59°57' E 030°11'0 0.0
2019-Aug-19 19:57N 59°57' E 030°11'0 0.0
2019-Aug-19 19:27N 59°57' E 030°11'0 0.0
2019-Aug-19 18:57N 59°57' E 030°11'0 0.0
2019-Aug-19 18:27N 59°57' E 030°11'0 0.0
2019-Aug-19 17:57N 59°57' E 030°11'0 0.0
2019-Aug-19 17:27N 59°57' E 030°11'0 0.0
2019-Aug-19 16:57N 59°57' E 030°11'0 0.0
2019-Aug-19 16:27N 59°57' E 030°11'0 0.0
2019-Aug-19 15:57N 59°57' E 030°11'0 0.0
2019-Aug-19 15:27N 59°57' E 030°11'0 0.0
2019-Aug-19 14:57N 59°57' E 030°11'0 0.0
2019-Aug-19 14:27N 59°57' E 030°11'9582098.0
2019-Aug-19 14:00N 52°54' E 004°18'95821955.5 170 / 161011.010.8 20.016.917.0
2019-Aug-19 13:57N 59°57' E 030°11'0 0.0
2019-Aug-19 13:27N 59°57' E 030°11'0 0.0
2019-Aug-19 12:57N 59°57' E 030°11'0 0.0
2019-Aug-19 12:27N 59°57' E 030°11'0 0.0
2019-Aug-19 11:57N 59°57' E 030°11'0 0.0
2019-Aug-19 11:27N 59°57' E 030°11'0 0.0
2019-Aug-19 10:57N 59°57' E 030°11'0 0.0
2019-Aug-19 10:27N 59°57' E 030°11'0 0.0
2019-Aug-19 09:57N 59°57' E 030°11'0 0.0
2019-Aug-19 09:27N 59°57' E 030°11'0 0.0
2019-Aug-19 08:57N 59°57' E 030°11'0 0.0
2019-Aug-19 08:27N 59°57' E 030°11'0 0.0
2019-Aug-19 07:57N 59°57' E 030°11'0 0.0
2019-Aug-19 07:27N 59°57' E 030°11'0 0.0
2019-Aug-19 06:57N 59°57' E 030°11'0 0.0
2019-Aug-19 06:27N 59°57' E 030°11'0 0.0
2019-Aug-19 05:57N 59°57' E 030°11'0 0.0
2019-Aug-19 05:27N 59°57' E 030°11'0 0.0
2019-Aug-19 04:57N 59°57' E 030°11'0 0.0
2019-Aug-19 04:27N 59°57' E 030°11'0 0.0
2019-Aug-19 03:57N 59°57' E 030°11'0 0.7
2019-Aug-19 03:30N 59°57' E 030°11'4 8.7
2019-Aug-19 03:00N 59°56' E 030°03'5 9.7
2019-Aug-19 02:30N 59°57' E 029°53'5 9.5
2019-Aug-19 02:00N 59°59' E 029°45'5 9.5
2019-Aug-19 01:30N 60°00' E 029°36'510.7
2019-Aug-19 01:00N 60°02' E 029°25'917.0
2019-Aug-19 00:30N 60°02' E 029°08'917.2
2019-Aug-19 00:00N 60°02' E 028°51'917.8
2019-Aug-18 23:31N 60°02' E 028°33'816.8
2019-Aug-18 23:00N 60°06' E 028°18'917.2
2019-Aug-18 22:30N 60°09' E 028°02'917.1
2019-Aug-18 22:00N 60°11' E 027°45'917.6
2019-Aug-18 21:30N 60°06' E 027°30'917.6
2019-Aug-18 21:00N 60°01' E 027°15'917.1
2019-Aug-18 20:30N 59°58' E 026°60'917.3
2019-Aug-18 20:00N 59°59' E 026°43'6336.0
2019-Aug-18 20:00N 59°54' E 026°42'918.3 140 / 221010.0 5.4 16.010.819.0
2019-Aug-18 19:30N 59°58' E 026°26'917.2
2019-Aug-18 19:00N 59°55' E 026°10'2143.5
2019-Aug-18 19:00N 59°54' E 026°06'713.5 130 / 281010.0 2.2 15.011.619.0
2019-Aug-18 18:30N 59°53' E 025°53'816.7
2019-Aug-18 18:00N 59°52' E 025°37'917.5
2019-Aug-18 17:30N 59°54' E 025°20'917.8
2019-Aug-18 17:00N 59°58' E 025°04'612.9
2019-Aug-18 16:30N 60°03' E 024°54'613.0
2019-Aug-18 16:01N 60°09' E 024°55'0 0.2
2019-Aug-18 15:29N 60°09' E 024°55'0 0.0
2019-Aug-18 14:59N 60°09' E 024°55'0 0.0
2019-Aug-18 14:29N 60°09' E 024°55'0 0.0
2019-Aug-18 13:59N 60°09' E 024°55'0 0.0
2019-Aug-18 13:29N 60°09' E 024°55'0 0.0
2019-Aug-18 12:59N 60°09' E 024°55'0 0.0
2019-Aug-18 12:29N 60°09' E 024°55'0 0.0
2019-Aug-18 11:59N 60°09' E 024°55'0 0.0
2019-Aug-18 11:29N 60°09' E 024°55'0 0.0
2019-Aug-18 10:59N 60°09' E 024°55'0 0.0
2019-Aug-18 10:29N 60°09' E 024°55'0 0.0
2019-Aug-18 09:59N 60°09' E 024°55'0 0.0
2019-Aug-18 09:29N 60°09' E 024°55'0 0.0
2019-Aug-18 08:59N 60°09' E 024°55'0 0.0
2019-Aug-18 08:29N 60°09' E 024°55'0 0.0
2019-Aug-18 07:59N 60°09' E 024°55'0 0.2
2019-Aug-18 07:00N 60°09' E 024°55'1 2.0
2019-Aug-18 06:30N 60°08' E 024°54'713.5
2019-Aug-18 06:00N 60°01' E 024°55'713.2
2019-Aug-18 05:31N 59°55' E 024°56'816.9
2019-Aug-18 05:01N 59°47' E 024°49'1019.0
2019-Aug-18 04:31N 59°45' E 024°31'918.7
2019-Aug-18 04:00N 59°42' E 024°13'1018.7
2019-Aug-18 03:30N 59°39' E 023°55'919.0
2019-Aug-18 03:00N 59°37' E 023°37'181583.6
2019-Aug-18 03:00N 59°42' E 024°12'2857.7 160 / 231010.010.8 23.020.119.0
2019-Aug-18 02:31N 59°34' E 023°19'919.0
2019-Aug-18 02:01N 59°30' E 023°02'917.9
2019-Aug-18 01:31N 59°27' E 022°46'918.7
2019-Aug-18 01:01N 59°23' E 022°28'918.8
2019-Aug-18 00:31N 59°25' E 022°10'918.9
2019-Aug-18 00:01N 59°28' E 021°53'1019.2
2019-Aug-17 23:31N 59°31' E 021°34'1019.0
2019-Aug-17 23:01N 59°33' E 021°16'1018.9
2019-Aug-17 22:30N 59°36' E 020°58'1118.9
2019-Aug-17 21:54N 59°39' E 020°37'2718.6
2019-Aug-17 20:26N 59°46' E 019°44'1019.0
2019-Aug-17 19:56N 59°47' E 019°26'815.3
2019-Aug-17 19:25N 59°44' E 019°11'816.5
2019-Aug-17 18:55N 59°40' E 018°57'410.3
2019-Aug-17 18:30N 59°37' E 018°50'1110.9
2019-Aug-17 17:28N 59°31' E 018°31'510.4
2019-Aug-17 17:00N 59°27' E 018°26'4 8.0
2019-Aug-17 16:30N 59°23' E 018°27'3 6.6
2019-Aug-17 16:00N 59°23' E 018°21'510.7
2019-Aug-17 15:30N 59°20' E 018°11'2 3.7
2019-Aug-17 15:00N 59°21' E 018°08'0 0.0
2019-Aug-17 14:29N 59°21' E 018°08'0 0.0
2019-Aug-17 13:59N 59°21' E 018°08'0 0.0
2019-Aug-17 13:29N 59°21' E 018°08'0 0.0
2019-Aug-17 12:59N 59°21' E 018°08'0 0.0
2019-Aug-17 12:29N 59°21' E 018°08'0 0.0
2019-Aug-17 11:59N 59°21' E 018°08'0 0.0
2019-Aug-17 11:29N 59°21' E 018°08'0 0.0
2019-Aug-17 10:59N 59°21' E 018°08'0 0.0
2019-Aug-17 10:29N 59°21' E 018°08'0 0.0
2019-Aug-17 09:59N 59°21' E 018°08'0 0.0
2019-Aug-17 09:29N 59°21' E 018°08'0 0.0
2019-Aug-17 08:59N 59°21' E 018°08'0 0.0
2019-Aug-17 08:29N 59°21' E 018°08'0 0.0
2019-Aug-17 07:59N 59°21' E 018°08'0 0.0
2019-Aug-17 07:29N 59°21' E 018°08'0 0.0
2019-Aug-17 06:59N 59°21' E 018°08'0 0.0
2019-Aug-17 06:29N 59°21' E 018°08'0 0.0
2019-Aug-17 05:59N 59°21' E 018°08'1 1.4
2019-Aug-17 05:30N 59°21' E 018°09'5 9.4
2019-Aug-17 05:00N 59°23' E 018°17'5 9.8
2019-Aug-17 04:30N 59°22' E 018°27'5 9.9
2019-Aug-17 04:00N 59°26' E 018°23'611.2
2019-Aug-17 03:30N 59°31' E 018°30'5 9.8
2019-Aug-17 03:00N 59°34' E 018°38'611.9
2019-Aug-17 02:30N 59°37' E 018°48'510.5
2019-Aug-17 02:00N 59°40' E 018°56'815.9
2019-Aug-17 01:30N 59°44' E 019°10'917.9
2019-Aug-17 01:01N 59°47' E 019°26'917.1
2019-Aug-17 00:31N 59°48' E 019°43'917.4
2019-Aug-17 00:00N 59°42' E 019°56'916.9
2019-Aug-16 23:30N 59°36' E 020°09'1817.0
2019-Aug-16 22:27N 59°34' E 020°44'817.6
2019-Aug-16 22:00N 59°31' E 020°59'917.5
2019-Aug-16 21:31N 59°29' E 021°15'917.1
2019-Aug-16 21:00N 59°27' E 021°32'917.4
2019-Aug-16 20:31N 59°28' E 021°49'917.4
2019-Aug-16 20:01N 59°28' E 022°06'917.2
2019-Aug-16 19:30N 59°29' E 022°23'1019.4
2019-Aug-16 19:00N 59°32' E 022°41'1019.5
2019-Aug-16 18:30N 59°35' E 022°59'1019.2
2019-Aug-16 18:00N 59°38' E 023°17'918.8
2019-Aug-16 17:30N 59°41' E 023°35'918.8
2019-Aug-16 17:01N 59°43' E 023°53'147286858.8
2019-Aug-16 17:00N 59°54' W 024°54'14803064.1 130 / 91015.010.8 23.020.118.0
2019-Aug-16 16:31N 59°46' E 024°11'918.8
2019-Aug-16 16:00N 59°48' E 024°29'918.7
2019-Aug-16 15:30N 59°52' E 024°46'816.4
2019-Aug-16 15:00N 59°58' E 024°57'713.9
2019-Aug-16 14:30N 60°05' E 024°54'4 8.0
2019-Aug-16 14:01N 60°09' E 024°55'0 0.0
2019-Aug-16 13:28N 60°09' E 024°55'0 0.0
2019-Aug-16 12:58N 60°09' E 024°55'0 0.0
2019-Aug-16 12:28N 60°09' E 024°55'0 0.0
2019-Aug-16 11:58N 60°09' E 024°55'0 0.0
2019-Aug-16 11:28N 60°09' E 024°55'0 0.0
2019-Aug-16 10:58N 60°09' E 024°55'0 0.0
2019-Aug-16 10:28N 60°09' E 024°55'0 0.0
2019-Aug-16 09:58N 60°09' E 024°55'0 0.0
2019-Aug-16 09:28N 60°09' E 024°55'0 0.0
2019-Aug-16 08:58N 60°09' E 024°55'0 0.0
2019-Aug-16 08:28N 60°09' E 024°55'0 0.0
2019-Aug-16 07:58N 60°09' E 024°55'0 0.0
2019-Aug-16 07:28N 60°09' E 024°55'0 0.0
2019-Aug-16 06:58N 60°09' E 024°55'0 0.0
2019-Aug-16 06:28N 60°09' E 024°55'0 0.0
2019-Aug-16 05:58N 60°09' E 024°55'0 0.0
2019-Aug-16 05:28N 60°09' E 024°55'0 0.0
2019-Aug-16 04:55N 60°09' E 024°55'0 0.0
2019-Aug-16 04:31N 60°09' E 024°55'1 1.6
2019-Aug-16 04:00N 60°08' E 024°54'612.9
2019-Aug-16 03:30N 60°02' E 024°55'612.8
2019-Aug-16 03:01N 59°59' E 025°06'918.9
2019-Aug-16 02:31N 59°56' E 025°24'1019.2
2019-Aug-16 02:01N 59°55' E 025°43'1019.2
2019-Aug-16 01:31N 59°57' E 026°02'1019.3
2019-Aug-16 01:00N 59°60' E 026°21'1019.6
2019-Aug-16 00:31N 60°01' E 026°40'917.6
2019-Aug-16 00:00N 59°59' E 026°58'816.4
2019-Aug-15 23:31N 60°02' E 027°13'917.0
2019-Aug-15 23:00N 60°07' E 027°27'816.9
2019-Aug-15 22:30N 60°11' E 027°42'816.0
2019-Aug-15 22:01N 60°11' E 027°58'816.7
2019-Aug-15 21:30N 60°09' E 028°14'816.2
2019-Aug-15 21:01N 60°04' E 028°27'816.1
2019-Aug-15 20:30N 60°03' E 028°43'816.2
2019-Aug-15 20:00N 60°03' E 028°60'815.8
2019-Aug-15 19:30N 60°02' E 029°15'713.3
2019-Aug-15 19:00N 60°02' E 029°29'510.0
2019-Aug-15 18:30N 60°00' E 029°38'5 9.7
2019-Aug-15 18:00N 59°58' E 029°47'510.3
2019-Aug-15 17:30N 59°56' E 029°57'5 9.4
2019-Aug-15 17:00N 59°57' E 030°06'2 5.0
2019-Aug-15 16:30N 59°57' E 030°11'0 0.0
2019-Aug-15 15:59N 59°57' E 030°11'0 0.0
2019-Aug-15 15:26N 59°57' E 030°11'0 0.0
2019-Aug-15 14:56N 59°57' E 030°11'0 0.0
2019-Aug-15 14:29N 59°57' E 030°11'0 0.0
2019-Aug-15 13:59N 59°57' E 030°11'0 0.0
2019-Aug-15 13:29N 59°57' E 030°11'0 0.0
2019-Aug-15 12:59N 59°57' E 030°11'0 0.0
2019-Aug-15 12:29N 59°57' E 030°11'0 0.0
2019-Aug-15 11:59N 59°57' E 030°11'0 0.0
2019-Aug-15 11:29N 59°57' E 030°11'0 0.0
2019-Aug-15 10:59N 59°57' E 030°11'0 0.0
2019-Aug-15 10:29N 59°57' E 030°11'0 0.0
2019-Aug-15 09:59N 59°57' E 030°11'0 0.0
2019-Aug-15 09:26N 59°57' E 030°11'0 0.0
2019-Aug-15 08:56N 59°57' E 030°11'0 0.0
2019-Aug-15 08:29N 59°57' E 030°11'0 0.0
2019-Aug-15 07:59N 59°57' E 030°11'0 0.0
2019-Aug-15 07:29N 59°57' E 030°11'0 0.0
2019-Aug-15 06:59N 59°57' E 030°11'0 0.0
2019-Aug-15 06:29N 59°57' E 030°11'0 0.0
2019-Aug-15 05:59N 59°57' E 030°11'0 0.0
2019-Aug-15 05:29N 59°57' E 030°11'0 0.0
2019-Aug-15 04:59N 59°57' E 030°11'0 0.0
2019-Aug-15 04:29N 59°57' E 030°11'0 0.0
2019-Aug-15 03:59N 59°57' E 030°11'0 0.0
2019-Aug-15 03:26N 59°57' E 030°11'0 0.0
2019-Aug-15 02:59N 59°57' E 030°11'0 0.0
2019-Aug-15 02:29N 59°57' E 030°11'0 0.0
2019-Aug-15 01:59N 59°57' E 030°11'0 0.0
2019-Aug-15 01:29N 59°57' E 030°11'0 0.0
2019-Aug-15 00:56N 59°57' E 030°11'0 0.0
2019-Aug-15 00:29N 59°57' E 030°11'0 0.0
2019-Aug-14 23:59N 59°57' E 030°11'0 0.0
2019-Aug-14 23:29N 59°57' E 030°11'0 0.0
2019-Aug-14 22:59N 59°57' E 030°11'0 0.0
2019-Aug-14 22:29N 59°57' E 030°11'0 0.0
2019-Aug-14 21:56N 59°57' E 030°11'0 0.0
2019-Aug-14 21:29N 59°57' E 030°11'0 0.0
2019-Aug-14 20:56N 59°57' E 030°11'0 0.0
2019-Aug-14 20:29N 59°57' E 030°11'0 0.0
2019-Aug-14 19:59N 59°57' E 030°11'0 0.0
2019-Aug-14 19:29N 59°57' E 030°11'0 0.0
2019-Aug-14 18:59N 59°57' E 030°11'0 0.0
2019-Aug-14 18:29N 59°57' E 030°11'0 0.0
2019-Aug-14 17:59N 59°57' E 030°11'0 0.0
2019-Aug-14 17:29N 59°57' E 030°11'0 0.0
2019-Aug-14 16:59N 59°57' E 030°11'0 0.0
2019-Aug-14 16:29N 59°57' E 030°11'0 0.0
2019-Aug-14 15:59N 59°57' E 030°11'0 0.0
2019-Aug-14 15:29N 59°57' E 030°11'0 0.0
2019-Aug-14 14:59N 59°57' E 030°11'0 0.0
2019-Aug-14 14:29N 59°57' E 030°11'0 0.0
2019-Aug-14 13:59N 59°57' E 030°11'0 0.0
2019-Aug-14 13:29N 59°57' E 030°11'0 0.0
2019-Aug-14 12:59N 59°57' E 030°11'0 0.0
2019-Aug-14 12:29N 59°57' E 030°11'0 0.0
2019-Aug-14 11:59N 59°57' E 030°11'0 0.0
2019-Aug-14 11:29N 59°57' E 030°11'0 0.0
2019-Aug-14 10:59N 59°57' E 030°11'0 0.0
2019-Aug-14 10:29N 59°57' E 030°11'0 0.0
2019-Aug-14 09:59N 59°57' E 030°11'0 0.0
2019-Aug-14 09:29N 59°57' E 030°11'0 0.0
2019-Aug-14 08:59N 59°57' E 030°11'0 0.0
2019-Aug-14 08:29N 59°57' E 030°11'0 0.0
2019-Aug-14 07:59N 59°57' E 030°11'0 0.0
2019-Aug-14 07:29N 59°57' E 030°11'0 0.0
2019-Aug-14 06:59N 59°57' E 030°11'  

Dump ship's entire track history